sensor_id;sensor_type;location;lat;lon;timestamp;pressure;altitude;pressure_sealevel;temperature;humidity
80712;BME280;70078;51.596;5.678;2023-05-10T09:15:11;100940.06;;;21.70;52.36
80712;BME280;70078;51.596;5.678;2023-05-10T09:17:38;100957.19;;;21.70;52.86
80712;BME280;70078;51.596;5.678;2023-05-10T09:20:05;100959.56;;;21.67;52.59
80712;BME280;70078;51.596;5.678;2023-05-10T09:22:31;100971.72;;;21.64;52.52
80712;BME280;70078;51.596;5.678;2023-05-10T09:25:11;100966.41;;;21.57;52.89
80712;BME280;70078;51.596;5.678;2023-05-10T09:27:37;100963.09;;;21.55;52.44
80712;BME280;70078;51.596;5.678;2023-05-10T09:30:04;100976.78;;;21.60;52.46
80712;BME280;70078;51.596;5.678;2023-05-10T09:32:40;100979.06;;;21.64;52.45
80712;BME280;70078;51.596;5.678;2023-05-10T09:35:17;100977.41;;;21.63;52.22
80712;BME280;70078;51.596;5.678;2023-05-10T09:37:46;100979.06;;;21.64;52.56
80712;BME280;70078;51.596;5.678;2023-05-10T09:40:15;100958.38;;;21.51;52.07
80712;BME280;70078;51.596;5.678;2023-05-10T09:42:43;100978.69;;;21.60;51.87
80712;BME280;70078;51.596;5.678;2023-05-10T09:45:15;100989.69;;;21.65;52.47
80712;BME280;70078;51.596;5.678;2023-05-10T09:47:40;100981.06;;;21.56;52.47
80712;BME280;70078;51.596;5.678;2023-05-10T09:50:06;100993.34;;;21.71;52.45
80712;BME280;70078;51.596;5.678;2023-05-10T09:52:55;100989.31;;;21.73;51.28
80712;BME280;70078;51.596;5.678;2023-05-10T09:55:43;100995.34;;;21.64;51.55
80712;BME280;70078;51.596;5.678;2023-05-10T09:58:12;100995.59;;;21.62;51.86
80712;BME280;70078;51.596;5.678;2023-05-10T10:00:47;100988.47;;;21.61;51.84
80712;BME280;70078;51.596;5.678;2023-05-10T10:03:19;100985.06;;;21.66;52.07
80712;BME280;70078;51.596;5.678;2023-05-10T10:05:46;100990.50;;;21.66;52.07
80712;BME280;70078;51.596;5.678;2023-05-10T10:08:12;100966.16;;;21.59;52.66
80712;BME280;70078;51.596;5.678;2023-05-10T10:10:39;100994.78;;;21.85;52.64
80712;BME280;70078;51.596;5.678;2023-05-10T10:13:09;100989.69;;;21.77;53.33
80712;BME280;70078;51.596;5.678;2023-05-10T10:15:34;100979.53;;;21.72;53.48
80712;BME280;70078;51.596;5.678;2023-05-10T10:18:00;100977.75;;;21.78;53.52
80712;BME280;70078;51.596;5.678;2023-05-10T10:20:27;100978.69;;;21.72;53.53
80712;BME280;70078;51.596;5.678;2023-05-10T10:22:53;100982.94;;;21.68;53.29
80712;BME280;70078;51.596;5.678;2023-05-10T10:25:19;100991.34;;;21.78;52.89
80712;BME280;70078;51.596;5.678;2023-05-10T10:36:06;101002.19;;;21.89;53.40
80712;BME280;70078;51.596;5.678;2023-05-10T10:41:33;100991.44;;;21.95;53.30
80712;BME280;70078;51.596;5.678;2023-05-10T10:52:39;100978.56;;;21.90;53.44
80712;BME280;70078;51.596;5.678;2023-05-10T10:55:19;100981.88;;;21.92;53.01
80712;BME280;70078;51.596;5.678;2023-05-10T10:57:50;100980.81;;;21.81;53.55
80712;BME280;70078;51.596;5.678;2023-05-10T11:00:36;100972.19;;;21.73;53.02
80712;BME280;70078;51.596;5.678;2023-05-10T11:03:09;100985.31;;;21.76;53.21
80712;BME280;70078;51.596;5.678;2023-05-10T11:08:17;100997.38;;;21.56;53.86
80712;BME280;70078;51.596;5.678;2023-05-10T11:10:54;101004.31;;;21.52;53.82
80712;BME280;70078;51.596;5.678;2023-05-10T11:13:42;101007.03;;;21.52;54.25
80712;BME280;70078;51.596;5.678;2023-05-10T11:16:18;101004.31;;;21.52;53.96
80712;BME280;70078;51.596;5.678;2023-05-10T11:19:00;101011.06;;;21.50;54.10
80712;BME280;70078;51.596;5.678;2023-05-10T11:21:27;101000.66;;;21.47;54.25
80712;BME280;70078;51.596;5.678;2023-05-10T11:23:55;101002.28;;;21.36;54.15
80712;BME280;70078;51.596;5.678;2023-05-10T11:26:25;101011.03;;;21.38;54.41
80712;BME280;70078;51.596;5.678;2023-05-10T11:28:53;101018.59;;;21.36;54.99
80712;BME280;70078;51.596;5.678;2023-05-10T11:31:20;101020.47;;;21.36;55.08
80712;BME280;70078;51.596;5.678;2023-05-10T11:33:47;101029.59;;;21.41;55.46
80712;BME280;70078;51.596;5.678;2023-05-10T11:36:14;101026.38;;;21.32;55.88
80712;BME280;70078;51.596;5.678;2023-05-10T11:38:40;101028.38;;;21.37;55.76
80712;BME280;70078;51.596;5.678;2023-05-10T11:41:08;101025.09;;;21.35;55.87
80712;BME280;70078;51.596;5.678;2023-05-10T11:43:33;101025.09;;;21.35;55.85
80712;BME280;70078;51.596;5.678;2023-05-10T11:45:59;101018.44;;;21.31;55.62
80712;BME280;70078;51.596;5.678;2023-05-10T11:48:25;101020.56;;;21.29;55.77
80712;BME280;70078;51.596;5.678;2023-05-10T11:50:50;101014.38;;;21.22;56.03
80712;BME280;70078;51.596;5.678;2023-05-10T11:53:15;101024.56;;;21.26;56.31
80712;BME280;70078;51.596;5.678;2023-05-10T11:55:41;101016.22;;;21.28;55.99
80712;BME280;70078;51.596;5.678;2023-05-10T11:58:06;101025.25;;;21.22;56.36
80712;BME280;70078;51.596;5.678;2023-05-10T12:00:31;101024.81;;;21.25;56.19
80712;BME280;70078;51.596;5.678;2023-05-10T12:02:57;101007.78;;;21.18;56.23
80712;BME280;70078;51.596;5.678;2023-05-10T12:05:23;101026.84;;;21.29;56.15
80712;BME280;70078;51.596;5.678;2023-05-10T12:07:49;101024.81;;;21.25;56.10
80712;BME280;70078;51.596;5.678;2023-05-10T12:10:14;101039.06;;;21.20;56.34
80712;BME280;70078;51.596;5.678;2023-05-10T12:12:45;101026.00;;;21.29;56.13
80712;BME280;70078;51.596;5.678;2023-05-10T12:15:24;101031.59;;;21.46;55.95
80712;BME280;70078;51.596;5.678;2023-05-10T12:17:50;101039.63;;;21.52;55.72
80712;BME280;70078;51.596;5.678;2023-05-10T12:20:20;101031.97;;;21.49;55.44
80712;BME280;70078;51.596;5.678;2023-05-10T12:25:12;101045.34;;;21.63;55.15
80712;BME280;70078;51.596;5.678;2023-05-10T12:27:37;101032.19;;;21.59;55.12
80712;BME280;70078;51.596;5.678;2023-05-10T12:30:03;101030.31;;;21.60;54.98
80712;BME280;70078;51.596;5.678;2023-05-10T12:32:41;101029.25;;;21.61;55.04
80712;BME280;70078;51.596;5.678;2023-05-10T12:35:07;101040.47;;;21.65;54.96
80712;BME280;70078;51.596;5.678;2023-05-10T12:37:33;101044.16;;;21.70;54.87
80712;BME280;70078;51.596;5.678;2023-05-10T12:40:05;101050.41;;;21.71;54.83
80712;BME280;70078;51.596;5.678;2023-05-10T12:42:31;101056.69;;;21.71;54.79
